createdAt,value
2023-01-28T00:00:57.281Z,45706.00
2023-01-28T00:03:23.925Z,45698.00
2023-01-28T00:05:50.925Z,45702.00
2023-01-28T00:08:17.334Z,45714.00
2023-01-28T00:10:43.929Z,45690.00
2023-01-28T00:13:14.651Z,45706.00
2023-01-28T00:15:41.763Z,45704.00
2023-01-28T00:18:08.200Z,45696.00
2023-01-28T00:20:35.309Z,45706.00
2023-01-28T00:23:01.981Z,45737.97
2023-01-28T00:25:28.344Z,45704.00
2023-01-28T00:27:55.134Z,45714.00
2023-01-28T00:30:21.923Z,45718.00
2023-01-28T00:32:48.288Z,45708.00
2023-01-28T00:35:15.475Z,45729.97
2023-01-28T00:37:42.277Z,45725.97
2023-01-28T00:40:09.928Z,45722.00
2023-01-28T00:42:37.511Z,45714.00
2023-01-28T00:45:04.259Z,45727.97
2023-01-28T00:47:30.639Z,45698.00
2023-01-28T00:49:57.181Z,45706.00
2023-01-28T00:52:23.653Z,45712.00
2023-01-28T00:54:50.025Z,45729.97
2023-01-28T00:57:16.407Z,45731.97
2023-01-28T00:59:43.594Z,45714.00
2023-01-28T01:02:13.160Z,45710.00
2023-01-28T01:04:40.575Z,45682.00
2023-01-28T01:07:07.295Z,45718.00
2023-01-28T01:09:33.716Z,45698.00
2023-01-28T01:12:00.177Z,45725.97
2023-01-28T01:14:26.747Z,45714.00
2023-01-28T01:16:53.143Z,45716.00
2023-01-28T01:19:19.695Z,45714.00
2023-01-28T01:21:50.285Z,45704.00
2023-01-28T01:24:16.846Z,45718.00
2023-01-28T01:26:43.482Z,45714.00
2023-01-28T01:29:09.938Z,45725.97
2023-01-28T01:31:36.519Z,45729.97
2023-01-28T01:34:02.985Z,45727.97
2023-01-28T01:36:29.508Z,45700.00
2023-01-28T01:38:56.337Z,45739.97
2023-01-28T01:41:32.081Z,45735.97
2023-01-28T01:44:01.459Z,45714.00
2023-01-28T01:46:45.978Z,45712.00
2023-01-28T01:49:23.440Z,45718.00
2023-01-28T01:51:54.610Z,45702.00
2023-01-28T01:54:26.681Z,45733.97
2023-01-28T01:56:53.342Z,45737.97
2023-01-28T01:59:24.818Z,45714.00
2023-01-28T02:01:52.399Z,45720.00
2023-01-28T02:04:32.324Z,45727.97
2023-01-28T02:07:01.390Z,45712.00
2023-01-28T02:09:38.408Z,45735.97
2023-01-28T02:12:10.265Z,45712.00
2023-01-28T02:14:42.264Z,45718.00
2023-01-28T02:17:09.435Z,45722.00
2023-01-28T02:19:57.209Z,45739.97
2023-01-28T02:22:45.714Z,45694.00
2023-01-28T02:25:36.743Z,45718.00
2023-01-28T02:28:15.646Z,45731.97
2023-01-28T02:30:51.770Z,45718.00
2023-01-28T02:33:28.385Z,45733.97
2023-01-28T02:35:56.087Z,45731.97
2023-01-28T02:38:37.608Z,45710.00
2023-01-28T02:41:11.736Z,45725.97
2023-01-28T02:43:44.601Z,45722.00
2023-01-28T02:46:32.971Z,45729.97
2023-01-28T02:48:59.708Z,45708.00
2023-01-28T02:51:37.844Z,45729.97
2023-01-28T02:54:12.672Z,45729.97
2023-01-28T02:57:05.997Z,45735.97
2023-01-28T02:59:55.625Z,45729.97
2023-01-28T03:02:50.707Z,45737.97
2023-01-28T03:05:29.537Z,45751.97
2023-01-28T03:07:57.398Z,45725.97
2023-01-28T03:10:27.298Z,45722.00
2023-01-28T03:13:15.120Z,45735.97
2023-01-28T03:16:05.231Z,45739.97
2023-01-28T03:19:10.831Z,45735.97
2023-01-28T03:22:01.358Z,45725.97
2023-01-28T03:24:56.907Z,45722.00
2023-01-28T03:27:52.419Z,45743.97
2023-01-28T03:30:48.090Z,45737.97
2023-01-28T03:33:45.007Z,45725.97
2023-01-28T03:36:30.632Z,45739.97
2023-01-28T03:38:58.431Z,45747.97
2023-01-28T03:41:26.255Z,45741.97
2023-01-28T03:43:56.009Z,45725.97
2023-01-28T03:46:22.721Z,45745.97
2023-01-28T03:48:49.167Z,45725.97
2023-01-28T03:51:16.517Z,45725.97
2023-01-28T03:53:42.911Z,45725.97
2023-01-28T03:56:18.041Z,45716.00
2023-01-28T03:58:56.332Z,45729.97
2023-01-28T04:01:24.091Z,45745.97
2023-01-28T04:03:50.594Z,45737.97
2023-01-28T04:06:28.825Z,45725.97
2023-01-28T04:09:14.081Z,45733.97
2023-01-28T04:11:50.890Z,45729.97
2023-01-28T04:14:23.773Z,45722.00
2023-01-28T04:16:56.788Z,45727.97
2023-01-28T04:19:26.070Z,45757.97
2023-01-28T04:21:54.393Z,45749.97
2023-01-28T04:24:22.723Z,45749.97
2023-01-28T04:26:50.202Z,45755.97
2023-01-28T04:29:16.861Z,45725.97
2023-01-28T04:31:43.921Z,45714.00
2023-01-28T04:34:34.496Z,45745.97
2023-01-28T04:37:22.075Z,45722.00
2023-01-28T04:40:07.739Z,45757.97
2023-01-28T04:42:54.465Z,45747.97
2023-01-28T04:45:30.970Z,45737.97
2023-01-28T04:48:25.651Z,45706.00
2023-01-28T04:51:06.304Z,45735.97
2023-01-28T04:53:35.637Z,45712.00
2023-01-28T04:56:22.376Z,45718.00
2023-01-28T04:58:48.760Z,45745.97
2023-01-28T05:01:16.566Z,45747.97
2023-01-28T05:03:42.990Z,45729.97
2023-01-28T05:06:14.757Z,45741.97
2023-01-28T05:08:43.451Z,45741.97
2023-01-28T05:11:09.895Z,45729.97
2023-01-28T05:13:36.323Z,45729.97
2023-01-28T05:16:03.609Z,45729.97
2023-01-28T05:18:30.148Z,45757.97
2023-01-28T05:21:09.420Z,45739.97
2023-01-28T05:23:38.590Z,45745.97
2023-01-28T05:26:05.951Z,45741.97
2023-01-28T05:28:33.903Z,45714.00
2023-01-28T05:31:07.275Z,45745.97
2023-01-28T05:33:33.907Z,45737.97
2023-01-28T05:36:01.580Z,45741.97
2023-01-28T05:38:28.388Z,45733.97
2023-01-28T05:40:55.018Z,45741.97
2023-01-28T05:43:21.889Z,45725.97
2023-01-28T05:46:08.691Z,45724.00
2023-01-28T05:48:55.073Z,45731.97
2023-01-28T05:51:44.197Z,45745.97
2023-01-28T05:54:14.209Z,45714.00
2023-01-28T05:56:40.837Z,45749.97
2023-01-28T05:59:07.313Z,45741.97
2023-01-28T06:01:35.157Z,45745.97
2023-01-28T06:04:01.681Z,45761.97
2023-01-28T06:06:30.983Z,45741.97
2023-01-28T06:08:57.576Z,45733.97
2023-01-28T06:11:29.737Z,45749.97
2023-01-28T06:14:00.804Z,45725.97
2023-01-28T06:16:52.146Z,45753.97
2023-01-28T06:19:26.416Z,45733.97
2023-01-28T06:21:52.899Z,45720.00
2023-01-28T06:24:19.919Z,45725.97
2023-01-28T06:26:46.324Z,45757.97
2023-01-28T06:29:12.906Z,45725.97
2023-01-28T06:31:39.298Z,45749.97
2023-01-28T06:34:06.016Z,45745.97
2023-01-28T06:36:32.853Z,45753.97
2023-01-28T06:39:00.193Z,45753.97
2023-01-28T06:41:26.612Z,45727.97
2023-01-28T06:43:53.413Z,45739.97
2023-01-28T06:46:19.921Z,45733.97
2023-01-28T06:48:46.397Z,45733.97
2023-01-28T06:51:12.807Z,45745.97
2023-01-28T06:53:39.228Z,45725.97
2023-01-28T06:56:05.897Z,45739.97
2023-01-28T06:58:32.530Z,45745.97
2023-01-28T07:00:58.933Z,45722.00
2023-01-28T07:03:25.771Z,45747.97
2023-01-28T07:05:52.547Z,45733.97
2023-01-28T07:08:18.915Z,45731.97
2023-01-28T07:10:45.764Z,45741.97
2023-01-28T07:13:12.326Z,45741.97
2023-01-28T07:15:38.726Z,45729.97
2023-01-28T07:18:05.391Z,45751.97
2023-01-28T07:20:31.860Z,45749.97
2023-01-28T07:22:58.287Z,45751.97
2023-01-28T07:25:24.935Z,45733.97
2023-01-28T07:27:53.615Z,45729.97
2023-01-28T07:30:21.053Z,45743.97
2023-01-28T07:32:52.675Z,45749.97
2023-01-28T07:35:19.140Z,45729.97
2023-01-28T07:37:54.437Z,45735.97
2023-01-28T07:40:21.554Z,45725.97
2023-01-28T07:42:48.372Z,45747.97
2023-01-28T07:45:15.556Z,45749.97
2023-01-28T07:47:42.254Z,45753.97
2023-01-28T07:50:10.986Z,45749.97
2023-01-28T07:52:44.205Z,45739.97
2023-01-28T07:55:15.433Z,45751.97
2023-01-28T07:57:49.920Z,45729.97
2023-01-28T08:00:17.242Z,45753.97
2023-01-28T08:02:47.895Z,45725.97
2023-01-28T08:05:19.292Z,45745.97
2023-01-28T08:07:46.641Z,45747.97
2023-01-28T08:10:13.683Z,45729.97
2023-01-28T08:12:40.339Z,45733.97
2023-01-28T08:15:07.554Z,45731.97
2023-01-28T08:17:34.147Z,45720.00
2023-01-28T08:20:00.578Z,45725.97
2023-01-28T08:22:27.942Z,45729.97
2023-01-28T08:24:54.342Z,45741.97
2023-01-28T08:27:20.767Z,45775.94
2023-01-28T08:29:47.139Z,45737.97
2023-01-28T08:32:13.529Z,45729.97
2023-01-28T08:34:39.888Z,45753.97
2023-01-28T08:37:06.390Z,45757.97
2023-01-28T08:39:32.812Z,45753.97
2023-01-28T08:41:59.176Z,45729.97
2023-01-28T08:44:25.530Z,45733.97
2023-01-28T08:46:51.928Z,45757.97
2023-01-28T08:49:18.311Z,45751.97
2023-01-28T08:51:44.722Z,45737.97
2023-01-28T08:54:11.259Z,45731.97
2023-01-28T08:56:38.938Z,45759.97
2023-01-28T08:59:05.335Z,45718.00
2023-01-28T09:01:32.125Z,45739.97
2023-01-28T09:03:59.299Z,45735.97
2023-01-28T09:06:25.734Z,45745.97
2023-01-28T09:08:52.309Z,45722.00
2023-01-28T09:11:18.990Z,45745.97
2023-01-28T09:13:45.412Z,45749.97
2023-01-28T09:16:11.881Z,45735.97
2023-01-28T09:18:38.313Z,45741.97
2023-01-28T09:21:06.513Z,45733.97
2023-01-28T09:23:36.498Z,45741.97
2023-01-28T09:26:04.448Z,45733.97
2023-01-28T09:28:31.476Z,45722.00
2023-01-28T09:31:09.108Z,45729.97
2023-01-28T09:33:37.227Z,45737.97
2023-01-28T09:36:05.617Z,45731.97
2023-01-28T09:38:34.979Z,45751.97
2023-01-28T09:41:03.941Z,45729.97
2023-01-28T09:43:54.361Z,45733.97
2023-01-28T09:46:20.991Z,45729.97
2023-01-28T09:48:52.072Z,45731.97
2023-01-28T09:51:40.397Z,45731.97
2023-01-28T09:54:49.846Z,45735.97
2023-01-28T09:57:23.343Z,45733.97
2023-01-28T09:59:50.263Z,45753.97
2023-01-28T10:02:33.947Z,45753.97
2023-01-28T10:05:06.960Z,45704.00
2023-01-28T10:07:41.426Z,45741.97
2023-01-28T10:10:28.765Z,45716.00
2023-01-28T10:13:02.177Z,45733.97
2023-01-28T10:15:43.504Z,45722.00
2023-01-28T10:18:17.718Z,45741.97
2023-01-28T10:20:52.378Z,45727.97
2023-01-28T10:23:28.038Z,45729.97
2023-01-28T10:25:57.853Z,45725.97
2023-01-28T10:28:27.907Z,45745.97
2023-01-28T10:30:54.977Z,45737.97
2023-01-28T10:33:27.553Z,45739.97
2023-01-28T10:35:57.784Z,45733.97
2023-01-28T10:38:26.832Z,45749.97
2023-01-28T10:40:58.283Z,45751.97
2023-01-28T10:43:26.748Z,45733.97
2023-01-28T10:46:18.422Z,45737.97
2023-01-28T10:48:56.385Z,45737.97
2023-01-28T10:51:34.739Z,45722.00
2023-01-28T10:54:01.357Z,45749.97
2023-01-28T10:56:35.491Z,45710.00
2023-01-28T10:59:06.238Z,45727.97
2023-01-28T11:01:47.437Z,45733.97
2023-01-28T11:04:20.215Z,45712.00
2023-01-28T11:06:54.108Z,45741.97
2023-01-28T11:09:25.582Z,45743.97
2023-01-28T11:11:52.096Z,45714.00
2023-01-28T11:14:24.135Z,45731.97
2023-01-28T11:16:52.387Z,45731.97
2023-01-28T11:19:22.963Z,45729.97
2023-01-28T11:21:54.221Z,45741.97
2023-01-28T11:24:26.345Z,45725.97
2023-01-28T11:26:55.386Z,45737.97
2023-01-28T11:29:24.734Z,45727.97
2023-01-28T11:31:51.700Z,45718.00
2023-01-28T11:34:19.493Z,45725.97
2023-01-28T11:37:03.761Z,45737.97
2023-01-28T11:39:30.689Z,45729.97
2023-01-28T11:42:12.366Z,45727.97
2023-01-28T11:44:40.096Z,45727.97
2023-01-28T11:47:47.161Z,45747.97
2023-01-28T11:50:33.183Z,45733.97
2023-01-28T11:53:24.154Z,45729.97
2023-01-28T11:56:26.223Z,45735.97
2023-01-28T11:59:09.676Z,45731.97
2023-01-28T12:02:06.648Z,45706.00
2023-01-28T12:04:48.239Z,45725.97
2023-01-28T12:07:35.958Z,45712.00
2023-01-28T12:10:28.346Z,45714.00
2023-01-28T12:13:22.678Z,45722.00
2023-01-28T12:16:12.513Z,45724.00
2023-01-28T12:19:03.183Z,45725.97
2023-01-28T12:21:36.657Z,45718.00
2023-01-28T12:24:18.377Z,45725.97
2023-01-28T12:27:26.713Z,45718.00
2023-01-28T12:30:11.486Z,45706.00
2023-01-28T12:33:08.611Z,45718.00
2023-01-28T12:35:58.415Z,45725.97
2023-01-28T12:38:50.536Z,45724.00
2023-01-28T12:41:20.681Z,45718.00
2023-01-28T12:43:54.765Z,45716.00
2023-01-28T12:46:42.709Z,45706.00
2023-01-28T12:49:17.951Z,45702.00
2023-01-28T12:52:08.842Z,45700.00
2023-01-28T12:55:06.764Z,45698.00
2023-01-28T12:57:35.200Z,45710.00
2023-01-28T13:00:25.837Z,45680.03
2023-01-28T13:03:02.057Z,45680.03
2023-01-28T13:05:38.463Z,45680.03
2023-01-28T13:08:15.120Z,45690.00
2023-01-28T13:10:43.978Z,45674.03
2023-01-28T13:13:33.733Z,45676.03
2023-01-28T13:16:01.638Z,45696.00
2023-01-28T13:19:04.040Z,45682.00
2023-01-28T13:21:40.167Z,45686.00
2023-01-28T13:24:14.155Z,45704.00
2023-01-28T13:26:51.242Z,45710.00
2023-01-28T13:29:30.296Z,45702.00
2023-01-28T13:32:00.173Z,45678.03
2023-01-28T13:34:40.640Z,45676.03
2023-01-28T13:37:15.965Z,45692.00
2023-01-28T13:39:49.616Z,45688.00
2023-01-28T13:42:22.755Z,45694.00
2023-01-28T13:44:49.635Z,45686.00
2023-01-28T13:47:33.901Z,45686.00
2023-01-28T13:50:04.482Z,45682.00
2023-01-28T13:52:37.496Z,45670.03
2023-01-28T13:55:33.690Z,45688.00
2023-01-28T13:58:06.395Z,45690.00
2023-01-28T14:01:01.123Z,45682.00
2023-01-28T14:04:05.122Z,45694.00
2023-01-28T14:06:37.553Z,45666.03
2023-01-28T14:09:31.855Z,45668.03
2023-01-28T14:12:13.275Z,45682.00
2023-01-28T14:15:07.854Z,45650.03
2023-01-28T14:17:53.845Z,45674.03
2023-01-28T14:20:25.282Z,45654.03
2023-01-28T14:22:59.300Z,45650.03
2023-01-28T14:25:33.887Z,45670.03
2023-01-28T14:28:02.589Z,45666.03
2023-01-28T14:30:42.268Z,45674.03
2023-01-28T14:33:11.865Z,45668.03
2023-01-28T14:35:44.907Z,45664.03
2023-01-28T14:38:17.598Z,45662.03
2023-01-28T14:40:45.292Z,45694.00
2023-01-28T14:43:20.449Z,45670.03
2023-01-28T14:46:28.163Z,45656.03
2023-01-28T14:49:17.220Z,45682.00
2023-01-28T14:52:20.411Z,45700.00
2023-01-28T14:55:04.481Z,45670.03
2023-01-28T14:57:30.965Z,45670.03
2023-01-28T14:59:58.133Z,45690.00
2023-01-28T15:02:26.751Z,45696.00
2023-01-28T15:04:53.785Z,45706.00
2023-01-28T15:07:21.776Z,45690.00
2023-01-28T15:10:07.146Z,45698.00
2023-01-28T15:12:38.780Z,45682.00
2023-01-28T15:15:33.946Z,45710.00
2023-01-28T15:18:04.349Z,45710.00
2023-01-28T15:20:32.053Z,45714.00
2023-01-28T15:22:59.005Z,45692.00
2023-01-28T15:25:29.197Z,45724.00
2023-01-28T15:28:01.714Z,45710.00
2023-01-28T15:30:31.782Z,45714.00
2023-01-28T15:33:03.314Z,45686.00
2023-01-28T15:35:30.175Z,45702.00
2023-01-28T15:37:57.043Z,45714.00
2023-01-28T15:40:25.901Z,45722.00
2023-01-28T15:42:55.199Z,45722.00
2023-01-28T15:45:23.448Z,45696.00
2023-01-28T15:47:51.273Z,45725.97
2023-01-28T15:50:21.396Z,45710.00
2023-01-28T15:52:49.237Z,45710.00
2023-01-28T15:55:37.459Z,45737.97
2023-01-28T15:58:18.688Z,45741.97
2023-01-28T16:00:46.120Z,45733.97
2023-01-28T16:03:21.677Z,45725.97
2023-01-28T16:06:19.725Z,45739.97
2023-01-28T16:08:48.122Z,45737.97
2023-01-28T16:11:22.870Z,45729.97
2023-01-28T16:13:49.609Z,45724.00
2023-01-28T16:16:26.932Z,45710.00
2023-01-28T16:18:55.657Z,45737.97
2023-01-28T16:21:28.864Z,45729.97
2023-01-28T16:23:59.954Z,45747.97
2023-01-28T16:26:29.447Z,45755.97
2023-01-28T16:28:55.930Z,45731.97
2023-01-28T16:31:22.549Z,45757.97
2023-01-28T16:33:49.117Z,45753.97
2023-01-28T16:36:19.168Z,45733.97
2023-01-28T16:38:46.275Z,45725.97
2023-01-28T16:41:15.702Z,45757.97
2023-01-28T16:43:42.114Z,45749.97
2023-01-28T16:46:11.556Z,45759.97
2023-01-28T16:48:37.942Z,45745.97
2023-01-28T16:51:04.832Z,45749.97
2023-01-28T16:53:33.651Z,45749.97
2023-01-28T16:56:00.387Z,45769.97
2023-01-28T16:58:27.514Z,45747.97
2023-01-28T17:00:54.264Z,45753.97
2023-01-28T17:03:20.851Z,45751.97
2023-01-28T17:05:47.455Z,45767.97
2023-01-28T17:08:13.911Z,45757.97
2023-01-28T17:10:40.315Z,45749.97
2023-01-28T17:13:07.033Z,45793.94
2023-01-28T17:15:35.378Z,45741.97
2023-01-28T17:18:01.814Z,45771.94
2023-01-28T17:20:28.304Z,45759.97
2023-01-28T17:22:54.667Z,45783.94
2023-01-28T17:25:21.028Z,45769.97
2023-01-28T17:27:50.090Z,45749.97
2023-01-28T17:30:19.208Z,45765.97
2023-01-28T17:32:45.718Z,45773.94
2023-01-28T17:35:12.224Z,45801.94
2023-01-28T17:37:38.911Z,45769.97
2023-01-28T17:40:05.883Z,45777.94
2023-01-28T17:42:32.379Z,45781.94
2023-01-28T17:45:02.925Z,45773.94
2023-01-28T17:47:30.709Z,45761.97
2023-01-28T17:49:57.942Z,45781.94
2023-01-28T17:52:24.677Z,45781.94
2023-01-28T17:54:51.178Z,45817.91
2023-01-28T17:57:17.584Z,45793.94
2023-01-28T17:59:43.991Z,45765.97
2023-01-28T18:02:11.681Z,45777.94
2023-01-28T18:04:39.545Z,45797.94
2023-01-28T18:07:10.747Z,45795.94
2023-01-28T18:09:42.262Z,45815.94
2023-01-28T18:12:12.217Z,45797.94
2023-01-28T18:14:39.501Z,45809.94
2023-01-28T18:17:06.821Z,45797.94
2023-01-28T18:19:33.473Z,45803.94
2023-01-28T18:21:59.870Z,45789.94
2023-01-28T18:24:28.847Z,45813.94
2023-01-28T18:27:00.865Z,45837.91
2023-01-28T18:29:28.828Z,45817.91
2023-01-28T18:31:56.807Z,45793.94
2023-01-28T18:34:25.756Z,45807.94
2023-01-28T18:36:52.697Z,45801.94
2023-01-28T18:39:20.895Z,45821.91
2023-01-28T18:41:47.673Z,45807.94
2023-01-28T18:44:15.397Z,45817.91
2023-01-28T18:46:42.109Z,45817.91
2023-01-28T18:49:08.621Z,45805.94
2023-01-28T18:51:35.200Z,45789.94
2023-01-28T18:54:03.977Z,45801.94
2023-01-28T18:56:31.670Z,45825.91
2023-01-28T18:58:59.717Z,45817.91
2023-01-28T19:01:26.908Z,45785.94
2023-01-28T19:03:56.991Z,45809.94
2023-01-28T19:06:24.147Z,45789.94
2023-01-28T19:09:01.795Z,45819.91
2023-01-28T19:11:29.711Z,45813.94
2023-01-28T19:13:56.830Z,45805.94
2023-01-28T19:16:24.542Z,45799.94
2023-01-28T19:18:56.155Z,45811.94
2023-01-28T19:21:23.547Z,45817.91
2023-01-28T19:23:58.459Z,45833.91
2023-01-28T19:26:26.441Z,45807.94
2023-01-28T19:28:52.928Z,45801.94
2023-01-28T19:31:21.449Z,45811.94
2023-01-28T19:33:48.933Z,45791.94
2023-01-28T19:36:15.673Z,45841.91
2023-01-28T19:38:42.120Z,45825.91
2023-01-28T19:41:08.560Z,45817.91
2023-01-28T19:43:35.369Z,45817.91
2023-01-28T19:46:05.870Z,45795.94
2023-01-28T19:48:33.368Z,45825.91
2023-01-28T19:51:07.327Z,45813.94
2023-01-28T19:53:35.139Z,45809.94
2023-01-28T19:56:07.859Z,45823.91
2023-01-28T19:58:35.790Z,45823.91
2023-01-28T20:01:07.207Z,45825.91
2023-01-28T20:03:33.861Z,45831.91
2023-01-28T20:06:05.023Z,45809.94
2023-01-28T20:08:32.297Z,45837.91
2023-01-28T20:11:03.372Z,45833.91
2023-01-28T20:13:31.369Z,45825.91
2023-01-28T20:15:58.030Z,45829.91
2023-01-28T20:18:25.802Z,45833.91
2023-01-28T20:20:55.706Z,45829.91
2023-01-28T20:23:22.973Z,45829.91
2023-01-28T20:25:51.153Z,45801.94
2023-01-28T20:28:18.119Z,45825.91
2023-01-28T20:30:44.618Z,45823.91
2023-01-28T20:33:11.178Z,45793.94
2023-01-28T20:35:37.642Z,45815.94
2023-01-28T20:38:04.172Z,45801.94
2023-01-28T20:40:31.241Z,45817.91
2023-01-28T20:42:57.944Z,45797.94
2023-01-28T20:45:24.618Z,45809.94
2023-01-28T20:47:51.194Z,45809.94
2023-01-28T20:50:17.978Z,45817.91
2023-01-28T20:52:44.718Z,45821.91
2023-01-28T20:55:11.765Z,45821.91
2023-01-28T20:57:38.585Z,45833.91
2023-01-28T21:00:06.318Z,45825.91
2023-01-28T21:02:35.355Z,45791.94
2023-01-28T21:05:02.288Z,45831.91
2023-01-28T21:07:28.688Z,45825.91
2023-01-28T21:09:55.179Z,45809.94
2023-01-28T21:12:21.585Z,45827.91
2023-01-28T21:14:50.033Z,45809.94
2023-01-28T21:17:16.552Z,45813.94
2023-01-28T21:19:43.048Z,45825.91
2023-01-28T21:22:09.428Z,45807.94
2023-01-28T21:24:35.866Z,45841.91
2023-01-28T21:27:02.335Z,45821.91
2023-01-28T21:29:28.742Z,45819.91
2023-01-28T21:31:55.135Z,45837.91
2023-01-28T21:34:21.554Z,45807.94
2023-01-28T21:36:47.933Z,45817.91
2023-01-28T21:39:14.322Z,45833.91
2023-01-28T21:41:40.713Z,45841.91
2023-01-28T21:44:07.228Z,45833.91
2023-01-28T21:46:34.837Z,45817.91
2023-01-28T21:49:03.322Z,45849.91
2023-01-28T21:51:36.417Z,45845.91
2023-01-28T21:54:04.421Z,45819.91
2023-01-28T21:56:30.875Z,45841.91
2023-01-28T21:59:15.717Z,45843.91
2023-01-28T22:01:45.892Z,45833.91
2023-01-28T22:04:12.767Z,45839.91
2023-01-28T22:06:39.159Z,45857.91
2023-01-28T22:09:05.651Z,45849.91
2023-01-28T22:11:32.414Z,45853.91
2023-01-28T22:13:58.998Z,45825.91
2023-01-28T22:16:25.572Z,45819.91
2023-01-28T22:18:51.961Z,45817.91
2023-01-28T22:21:18.365Z,45827.91
2023-01-28T22:23:44.777Z,45847.91
2023-01-28T22:26:11.179Z,45841.91
2023-01-28T22:28:37.883Z,45827.91
2023-01-28T22:31:10.205Z,45845.91
2023-01-28T22:33:37.178Z,45853.91
2023-01-28T22:36:08.721Z,45835.91
2023-01-28T22:38:36.786Z,45861.91
2023-01-28T22:41:05.241Z,45843.91
2023-01-28T22:43:32.056Z,45831.91
2023-01-28T22:46:00.162Z,45853.91
2023-01-28T22:48:26.985Z,45855.91
2023-01-28T22:50:53.413Z,45857.91
2023-01-28T22:53:19.883Z,45851.91
2023-01-28T22:55:50.491Z,45831.91
2023-01-28T22:58:17.307Z,45887.88
2023-01-28T23:00:43.700Z,45857.91
2023-01-28T23:03:10.199Z,45831.91
2023-01-28T23:05:36.952Z,45829.91
2023-01-28T23:08:12.566Z,45833.91
2023-01-28T23:10:52.525Z,45857.91
2023-01-28T23:13:22.301Z,45853.91
2023-01-28T23:16:08.743Z,45837.91
2023-01-28T23:18:41.794Z,45869.88
2023-01-28T23:21:40.124Z,45829.91
2023-01-28T23:24:21.682Z,45837.91
2023-01-28T23:26:56.497Z,45835.91
2023-01-28T23:29:25.255Z,45849.91
2023-01-28T23:32:00.919Z,45835.91
2023-01-28T23:34:34.329Z,45841.91
2023-01-28T23:37:02.609Z,45861.91
2023-01-28T23:39:29.066Z,45853.91
2023-01-28T23:41:55.737Z,45865.88
2023-01-28T23:44:23.659Z,45835.91
2023-01-28T23:46:50.121Z,45851.91
2023-01-28T23:49:16.647Z,45851.91
2023-01-28T23:51:43.153Z,45873.88
2023-01-28T23:54:09.570Z,45893.88
2023-01-28T23:56:36.063Z,45833.91
2023-01-28T23:59:02.772Z,45863.91
